sensor_id;sensor_type;location;lat;lon;timestamp;pressure;altitude;pressure_sealevel;temperature;humidity
17054;BME280;8643;48.824;11.422;2023-05-20T00:00:09;97030.19;;;11.36;100.00
17054;BME280;8643;48.824;11.422;2023-05-20T00:02:40;97031.91;;;11.41;100.00
17054;BME280;8643;48.824;11.422;2023-05-20T00:05:09;97036.34;;;11.33;100.00
17054;BME280;8643;48.824;11.422;2023-05-20T00:07:37;97030.09;;;11.24;100.00
17054;BME280;8643;48.824;11.422;2023-05-20T00:10:06;97030.78;;;11.21;100.00
17054;BME280;8643;48.824;11.422;2023-05-20T00:12:36;97024.81;;;11.18;100.00
17054;BME280;8643;48.824;11.422;2023-05-20T00:15:06;97025.41;;;11.24;100.00
17054;BME280;8643;48.824;11.422;2023-05-20T00:17:35;97016.53;;;11.27;100.00
17054;BME280;8643;48.824;11.422;2023-05-20T00:20:06;97017.81;;;11.30;100.00
17054;BME280;8643;48.824;11.422;2023-05-20T00:22:35;97023.63;;;11.28;100.00
17054;BME280;8643;48.824;11.422;2023-05-20T00:25:04;97012.78;;;11.32;100.00
17054;BME280;8643;48.824;11.422;2023-05-20T00:27:33;97014.19;;;11.38;100.00
17054;BME280;8643;48.824;11.422;2023-05-20T00:30:01;97004.97;;;11.43;100.00
17054;BME280;8643;48.824;11.422;2023-05-20T00:32:30;97008.84;;;11.42;100.00
17054;BME280;8643;48.824;11.422;2023-05-20T00:35:02;97014.66;;;11.40;100.00
17054;BME280;8643;48.824;11.422;2023-05-20T00:37:32;97014.66;;;11.40;100.00
17054;BME280;8643;48.824;11.422;2023-05-20T00:40:01;97015.13;;;11.42;100.00
17054;BME280;8643;48.824;11.422;2023-05-20T00:42:30;97015.41;;;11.49;100.00
17054;BME280;8643;48.824;11.422;2023-05-20T00:44:59;97007.16;;;11.49;100.00
17054;BME280;8643;48.824;11.422;2023-05-20T00:47:31;97011.31;;;11.55;100.00
17054;BME280;8643;48.824;11.422;2023-05-20T00:50:00;97002.88;;;11.61;100.00
17054;BME280;8643;48.824;11.422;2023-05-20T00:52:32;96997.19;;;11.66;100.00
17054;BME280;8643;48.824;11.422;2023-05-20T00:55:01;96996.97;;;11.71;100.00
17054;BME280;8643;48.824;11.422;2023-05-20T00:57:30;96998.91;;;11.70;100.00
17054;BME280;8643;48.824;11.422;2023-05-20T00:59:59;96996.63;;;11.72;100.00
17054;BME280;8643;48.824;11.422;2023-05-20T01:02:28;96997.41;;;11.73;100.00
17054;BME280;8643;48.824;11.422;2023-05-20T01:04:57;97004.28;;;11.67;100.00
17054;BME280;8643;48.824;11.422;2023-05-20T01:07:26;96996.16;;;11.70;100.00
17054;BME280;8643;48.824;11.422;2023-05-20T01:09:56;96995.34;;;11.70;100.00
17054;BME280;8643;48.824;11.422;2023-05-20T01:12:27;96992.59;;;11.70;100.00
17054;BME280;8643;48.824;11.422;2023-05-20T01:15:02;96992.16;;;11.68;100.00
17054;BME280;8643;48.824;11.422;2023-05-20T01:17:35;96985.41;;;11.65;100.00
17054;BME280;8643;48.824;11.422;2023-05-20T01:20:07;96985.75;;;11.64;100.00
17054;BME280;8643;48.824;11.422;2023-05-20T01:22:45;96984.59;;;11.65;100.00
17054;BME280;8643;48.824;11.422;2023-05-20T01:25:14;96989.16;;;11.61;100.00
17054;BME280;8643;48.824;11.422;2023-05-20T01:27:45;96976.69;;;11.63;100.00
17054;BME280;8643;48.824;11.422;2023-05-20T01:30:15;96979.78;;;11.62;100.00
17054;BME280;8643;48.824;11.422;2023-05-20T01:32:49;96978.53;;;11.59;100.00
17054;BME280;8643;48.824;11.422;2023-05-20T01:35:21;96969.69;;;11.53;100.00
17054;BME280;8643;48.824;11.422;2023-05-20T01:37:52;96980.88;;;11.48;100.00
17054;BME280;8643;48.824;11.422;2023-05-20T01:40:22;96972.88;;;11.43;100.00
17054;BME280;8643;48.824;11.422;2023-05-20T01:42:52;96978.47;;;11.47;100.00
17054;BME280;8643;48.824;11.422;2023-05-20T01:45:23;96973.81;;;11.47;100.00
17054;BME280;8643;48.824;11.422;2023-05-20T01:47:53;96971.91;;;11.39;100.00
17054;BME280;8643;48.824;11.422;2023-05-20T01:50:22;96971.91;;;11.39;100.00
17054;BME280;8643;48.824;11.422;2023-05-20T01:52:51;96965.63;;;11.38;100.00
17054;BME280;8643;48.824;11.422;2023-05-20T01:55:20;96969.88;;;11.36;100.00
17054;BME280;8643;48.824;11.422;2023-05-20T01:57:48;96965.19;;;11.36;100.00
17054;BME280;8643;48.824;11.422;2023-05-20T02:00:17;96969.19;;;11.39;100.00
17054;BME280;8643;48.824;11.422;2023-05-20T02:02:46;96963.69;;;11.39;100.00
17054;BME280;8643;48.824;11.422;2023-05-20T02:05:15;96964.84;;;11.38;100.00
17054;BME280;8643;48.824;11.422;2023-05-20T02:07:44;96960.16;;;11.38;100.00
17054;BME280;8643;48.824;11.422;2023-05-20T02:10:14;96968.94;;;11.32;100.00
17054;BME280;8643;48.824;11.422;2023-05-20T02:12:43;96964.22;;;11.32;100.00
17054;BME280;8643;48.824;11.422;2023-05-20T02:15:14;96963.31;;;11.28;100.00
17054;BME280;8643;48.824;11.422;2023-05-20T02:17:43;96970.59;;;11.24;100.00
17054;BME280;8643;48.824;11.422;2023-05-20T02:20:13;96965.66;;;11.17;100.00
17054;BME280;8643;48.824;11.422;2023-05-20T02:22:42;96960.50;;;11.16;100.00
17054;BME280;8643;48.824;11.422;2023-05-20T02:25:11;96967.59;;;11.17;100.00
17054;BME280;8643;48.824;11.422;2023-05-20T02:27:40;96968.41;;;11.17;100.00
17054;BME280;8643;48.824;11.422;2023-05-20T02:30:09;96963.59;;;11.14;100.00
17054;BME280;8643;48.824;11.422;2023-05-20T02:32:38;96954.66;;;11.05;100.00
17054;BME280;8643;48.824;11.422;2023-05-20T02:35:07;96945.59;;;11.05;100.00
17054;BME280;8643;48.824;11.422;2023-05-20T02:37:36;96954.97;;;11.04;100.00
17054;BME280;8643;48.824;11.422;2023-05-20T02:40:07;96947.97;;;10.94;100.00
17054;BME280;8643;48.824;11.422;2023-05-20T02:42:39;96950.69;;;10.94;100.00
17054;BME280;8643;48.824;11.422;2023-05-20T02:45:09;96949.41;;;10.91;100.00
17054;BME280;8643;48.824;11.422;2023-05-20T02:47:38;96945.09;;;10.90;100.00
17054;BME280;8643;48.824;11.422;2023-05-20T02:50:07;96955.69;;;10.92;100.00
17054;BME280;8643;48.824;11.422;2023-05-20T02:52:37;96948.63;;;10.91;100.00
17054;BME280;8643;48.824;11.422;2023-05-20T02:55:07;96953.78;;;10.92;100.00
17054;BME280;8643;48.824;11.422;2023-05-20T02:57:36;96954.44;;;10.89;100.00
17054;BME280;8643;48.824;11.422;2023-05-20T03:00:09;96959.13;;;10.89;100.00
17054;BME280;8643;48.824;11.422;2023-05-20T03:02:38;96964.59;;;10.89;100.00
17054;BME280;8643;48.824;11.422;2023-05-20T03:05:08;96956.84;;;10.91;100.00
17054;BME280;8643;48.824;11.422;2023-05-20T03:07:37;96950.91;;;10.89;100.00
17054;BME280;8643;48.824;11.422;2023-05-20T03:10:08;96952.94;;;10.92;100.00
17054;BME280;8643;48.824;11.422;2023-05-20T03:12:38;96952.78;;;10.97;100.00
17054;BME280;8643;48.824;11.422;2023-05-20T03:15:10;96958.91;;;10.94;100.00
17054;BME280;8643;48.824;11.422;2023-05-20T03:17:39;96956.19;;;10.94;100.00
17054;BME280;8643;48.824;11.422;2023-05-20T03:20:08;96956.50;;;10.92;100.00
17054;BME280;8643;48.824;11.422;2023-05-20T03:22:40;96958.91;;;10.94;100.00
17054;BME280;8643;48.824;11.422;2023-05-20T03:25:09;96959.72;;;10.94;100.00
17054;BME280;8643;48.824;11.422;2023-05-20T03:27:38;96950.97;;;11.01;100.00
17054;BME280;8643;48.824;11.422;2023-05-20T03:30:12;96958.25;;;10.97;100.00
17054;BME280;8643;48.824;11.422;2023-05-20T03:32:41;96948.28;;;10.92;100.00
17054;BME280;8643;48.824;11.422;2023-05-20T03:35:11;96954.69;;;10.96;100.00
17054;BME280;8643;48.824;11.422;2023-05-20T03:37:40;96958.06;;;11.02;100.00
17054;BME280;8643;48.824;11.422;2023-05-20T03:40:09;96955.66;;;11.00;100.00
17054;BME280;8643;48.824;11.422;2023-05-20T03:42:40;96966.28;;;11.02;100.00
17054;BME280;8643;48.824;11.422;2023-05-20T03:45:11;96966.59;;;11.00;100.00
17054;BME280;8643;48.824;11.422;2023-05-20T03:47:47;96962.19;;;11.08;100.00
17054;BME280;8643;48.824;11.422;2023-05-20T03:50:17;96970.69;;;11.15;100.00
17054;BME280;8643;48.824;11.422;2023-05-20T03:52:46;96965.19;;;11.15;100.00
17054;BME280;8643;48.824;11.422;2023-05-20T03:55:17;96961.66;;;11.15;100.00
17054;BME280;8643;48.824;11.422;2023-05-20T03:57:46;96961.91;;;11.22;100.00
17054;BME280;8643;48.824;11.422;2023-05-20T04:00:17;96955.75;;;11.25;100.00
17054;BME280;8643;48.824;11.422;2023-05-20T04:02:46;96973.13;;;11.29;100.00
17054;BME280;8643;48.824;11.422;2023-05-20T04:05:18;96964.56;;;11.31;100.00
17054;BME280;8643;48.824;11.422;2023-05-20T04:07:47;96978.75;;;11.33;100.00
17054;BME280;8643;48.824;11.422;2023-05-20T04:10:19;96970.13;;;11.43;100.00
17054;BME280;8643;48.824;11.422;2023-05-20T04:12:49;96968.31;;;11.47;100.00
17054;BME280;8643;48.824;11.422;2023-05-20T04:15:21;96966.94;;;11.53;100.00
17054;BME280;8643;48.824;11.422;2023-05-20T04:17:54;96968.00;;;11.61;100.00
17054;BME280;8643;48.824;11.422;2023-05-20T04:20:24;96973.06;;;11.71;100.00
17054;BME280;8643;48.824;11.422;2023-05-20T04:22:56;96970.94;;;11.77;100.00
17054;BME280;8643;48.824;11.422;2023-05-20T04:25:24;96971.16;;;11.84;100.00
17054;BME280;8643;48.824;11.422;2023-05-20T04:27:54;96966.44;;;11.94;100.00
17054;BME280;8643;48.824;11.422;2023-05-20T04:30:25;96969.66;;;12.08;100.00
17054;BME280;8643;48.824;11.422;2023-05-20T04:32:54;96975.81;;;12.17;100.00
17054;BME280;8643;48.824;11.422;2023-05-20T04:35:23;96960.75;;;12.23;100.00
17054;BME280;8643;48.824;11.422;2023-05-20T04:37:55;96966.22;;;12.23;100.00
17054;BME280;8643;48.824;11.422;2023-05-20T04:40:23;96966.47;;;12.18;100.00
17054;BME280;8643;48.824;11.422;2023-05-20T04:42:52;96961.31;;;12.17;100.00
17054;BME280;8643;48.824;11.422;2023-05-20T04:45:22;96960.75;;;12.23;100.00
17054;BME280;8643;48.824;11.422;2023-05-20T04:47:52;96957.53;;;12.21;100.00
17054;BME280;8643;48.824;11.422;2023-05-20T04:50:21;96961.31;;;12.17;100.00
17054;BME280;8643;48.824;11.422;2023-05-20T04:52:49;96955.59;;;12.22;100.00
17054;BME280;8643;48.824;11.422;2023-05-20T04:55:18;96965.09;;;12.24;100.00
17054;BME280;8643;48.824;11.422;2023-05-20T04:57:48;96967.41;;;12.22;100.00
17054;BME280;8643;48.824;11.422;2023-05-20T05:00:17;96968.88;;;12.20;100.00
17054;BME280;8643;48.824;11.422;2023-05-20T05:02:46;96972.06;;;12.09;100.00
17054;BME280;8643;48.824;11.422;2023-05-20T05:05:16;96960.94;;;12.06;100.00
17054;BME280;8643;48.824;11.422;2023-05-20T05:07:45;96965.19;;;12.03;100.00
17054;BME280;8643;48.824;11.422;2023-05-20T05:10:14;96954.09;;;12.12;100.00
17054;BME280;8643;48.824;11.422;2023-05-20T05:12:43;96952.72;;;12.18;100.00
17054;BME280;8643;48.824;11.422;2023-05-20T05:15:12;96956.19;;;12.27;100.00
17054;BME280;8643;48.824;11.422;2023-05-20T05:17:42;96956.75;;;12.45;100.00
17054;BME280;8643;48.824;11.422;2023-05-20T05:20:11;96958.44;;;12.62;100.00
17054;BME280;8643;48.824;11.422;2023-05-20T05:22:41;96950.09;;;12.71;100.00
17054;BME280;8643;48.824;11.422;2023-05-20T05:25:11;96954.88;;;12.87;100.00
17054;BME280;8643;48.824;11.422;2023-05-20T05:27:41;96957.50;;;12.95;100.00
17054;BME280;8643;48.824;11.422;2023-05-20T05:30:11;96946.47;;;13.08;100.00
17054;BME280;8643;48.824;11.422;2023-05-20T05:32:40;96952.75;;;13.20;100.00
17054;BME280;8643;48.824;11.422;2023-05-20T05:35:09;96940.91;;;13.32;100.00
17054;BME280;8643;48.824;11.422;2023-05-20T05:37:38;96950.38;;;13.47;100.00
17054;BME280;8643;48.824;11.422;2023-05-20T05:40:09;96937.81;;;13.62;100.00
17054;BME280;8643;48.824;11.422;2023-05-20T05:42:38;96945.44;;;13.69;100.00
17054;BME280;8643;48.824;11.422;2023-05-20T05:45:09;96937.13;;;13.81;100.00
17054;BME280;8643;48.824;11.422;2023-05-20T05:47:38;96933.69;;;14.00;100.00
17054;BME280;8643;48.824;11.422;2023-05-20T05:50:07;96936.19;;;14.05;100.00
17054;BME280;8643;48.824;11.422;2023-05-20T05:52:37;96923.66;;;14.24;100.00
17054;BME280;8643;48.824;11.422;2023-05-20T05:55:10;96917.06;;;14.44;100.00
17054;BME280;8643;48.824;11.422;2023-05-20T05:57:39;96913.22;;;14.65;100.00
17054;BME280;8643;48.824;11.422;2023-05-20T06:00:11;96919.97;;;15.03;100.00
17054;BME280;8643;48.824;11.422;2023-05-20T06:02:46;96921.13;;;15.41;100.00
17054;BME280;8643;48.824;11.422;2023-05-20T06:05:30;96917.63;;;15.64;98.76
17054;BME280;8643;48.824;11.422;2023-05-20T06:08:00;96916.66;;;15.75;98.78
17054;BME280;8643;48.824;11.422;2023-05-20T06:10:31;96915.06;;;15.94;95.39
17054;BME280;8643;48.824;11.422;2023-05-20T06:13:00;96924.69;;;16.27;98.53
17054;BME280;8643;48.824;11.422;2023-05-20T06:15:28;96925.13;;;16.56;95.33
17054;BME280;8643;48.824;11.422;2023-05-20T06:17:57;96927.53;;;16.84;93.04
17054;BME280;8643;48.824;11.422;2023-05-20T06:20:26;96917.88;;;16.71;91.65
17054;BME280;8643;48.824;11.422;2023-05-20T06:22:55;96922.44;;;17.13;90.93
17054;BME280;8643;48.824;11.422;2023-05-20T06:25:31;96921.59;;;17.09;91.16
17054;BME280;8643;48.824;11.422;2023-05-20T06:28:00;96927.31;;;17.23;88.69
17054;BME280;8643;48.824;11.422;2023-05-20T06:30:30;96927.94;;;17.77;88.19
17054;BME280;8643;48.824;11.422;2023-05-20T06:32:59;96924.03;;;17.82;85.45
17054;BME280;8643;48.824;11.422;2023-05-20T06:35:28;96921.66;;;17.84;87.24
17054;BME280;8643;48.824;11.422;2023-05-20T06:37:56;96918.31;;;18.01;84.68
17054;BME280;8643;48.824;11.422;2023-05-20T06:40:28;96923.69;;;17.87;85.78
17054;BME280;8643;48.824;11.422;2023-05-20T06:42:59;96920.84;;;18.17;81.72
17054;BME280;8643;48.824;11.422;2023-05-20T06:45:48;96905.66;;;18.48;81.04
17054;BME280;8643;48.824;11.422;2023-05-20T06:48:26;96909.81;;;18.80;82.97
17054;BME280;8643;48.824;11.422;2023-05-20T06:50:55;96917.59;;;18.56;77.43
17054;BME280;8643;48.824;11.422;2023-05-20T06:53:24;96916.34;;;18.50;83.08
17054;BME280;8643;48.824;11.422;2023-05-20T06:55:54;96921.69;;;18.80;78.22
17054;BME280;8643;48.824;11.422;2023-05-20T06:58:24;96911.72;;;19.35;79.93
17054;BME280;8643;48.824;11.422;2023-05-20T07:00:56;96911.41;;;19.62;80.32
17054;BME280;8643;48.824;11.422;2023-05-20T07:03:25;96910.91;;;19.31;77.89
17054;BME280;8643;48.824;11.422;2023-05-20T07:05:56;96916.91;;;19.47;77.33
17054;BME280;8643;48.824;11.422;2023-05-20T07:08:25;96908.09;;;19.20;75.13
17054;BME280;8643;48.824;11.422;2023-05-20T07:10:54;96905.88;;;19.69;77.39
17054;BME280;8643;48.824;11.422;2023-05-20T07:13:25;96911.13;;;19.88;75.79
17054;BME280;8643;48.824;11.422;2023-05-20T07:15:54;96911.09;;;19.81;72.16
17054;BME280;8643;48.824;11.422;2023-05-20T07:18:22;96900.78;;;19.92;72.34
17054;BME280;8643;48.824;11.422;2023-05-20T07:20:53;96903.19;;;19.98;75.61
17054;BME280;8643;48.824;11.422;2023-05-20T07:23:41;96891.69;;;20.57;74.71
17054;BME280;8643;48.824;11.422;2023-05-20T07:26:10;96900.00;;;20.53;69.97
17054;BME280;8643;48.824;11.422;2023-05-20T07:28:41;96892.47;;;20.14;69.33
17054;BME280;8643;48.824;11.422;2023-05-20T07:31:10;96881.34;;;19.85;72.21
17054;BME280;8643;48.824;11.422;2023-05-20T07:33:42;96893.69;;;20.09;74.44
17054;BME280;8643;48.824;11.422;2023-05-20T07:36:11;96886.84;;;19.74;70.86
17054;BME280;8643;48.824;11.422;2023-05-20T07:38:42;96891.28;;;20.11;70.76
17054;BME280;8643;48.824;11.422;2023-05-20T07:41:28;96898.06;;;20.72;72.23
17054;BME280;8643;48.824;11.422;2023-05-20T07:44:01;96888.03;;;21.03;69.44
17054;BME280;8643;48.824;11.422;2023-05-20T07:46:30;96890.00;;;21.10;67.91
17054;BME280;8643;48.824;11.422;2023-05-20T07:48:59;96886.31;;;21.34;68.64
17054;BME280;8643;48.824;11.422;2023-05-20T07:51:27;96881.63;;;21.13;72.98
17054;BME280;8643;48.824;11.422;2023-05-20T07:53:56;96889.19;;;21.23;69.43
17054;BME280;8643;48.824;11.422;2023-05-20T07:56:26;96880.56;;;21.77;67.90
17054;BME280;8643;48.824;11.422;2023-05-20T07:58:59;96882.28;;;21.57;67.85
17054;BME280;8643;48.824;11.422;2023-05-20T08:01:33;96882.38;;;21.28;67.46
17054;BME280;8643;48.824;11.422;2023-05-20T08:04:03;96889.63;;;21.04;66.78
17054;BME280;8643;48.824;11.422;2023-05-20T08:06:32;96898.34;;;21.20;68.41
17054;BME280;8643;48.824;11.422;2023-05-20T08:09:03;96895.06;;;21.36;66.31
17054;BME280;8643;48.824;11.422;2023-05-20T08:11:35;96889.53;;;21.29;66.19
17054;BME280;8643;48.824;11.422;2023-05-20T08:14:06;96890.25;;;21.44;67.16
17054;BME280;8643;48.824;11.422;2023-05-20T08:16:40;96886.34;;;22.05;65.19
17054;BME280;8643;48.824;11.422;2023-05-20T08:19:09;96877.69;;;22.48;63.10
17054;BME280;8643;48.824;11.422;2023-05-20T08:21:38;96883.75;;;21.79;63.36
17054;BME280;8643;48.824;11.422;2023-05-20T08:24:06;96878.63;;;22.27;66.13
17054;BME280;8643;48.824;11.422;2023-05-20T08:26:36;96885.56;;;22.04;65.14
17054;BME280;8643;48.824;11.422;2023-05-20T08:29:06;96888.81;;;21.92;64.15
17054;BME280;8643;48.824;11.422;2023-05-20T08:31:35;96877.06;;;22.29;63.76
17054;BME280;8643;48.824;11.422;2023-05-20T08:34:04;96879.19;;;22.07;64.09
17054;BME280;8643;48.824;11.422;2023-05-20T08:36:34;96878.94;;;21.84;66.35
17054;BME280;8643;48.824;11.422;2023-05-20T08:39:03;96874.53;;;22.42;67.58
17054;BME280;8643;48.824;11.422;2023-05-20T08:41:33;96877.75;;;22.82;61.62
17054;BME280;8643;48.824;11.422;2023-05-20T08:44:02;96878.69;;;23.10;60.89
17054;BME280;8643;48.824;11.422;2023-05-20T08:46:34;96879.03;;;23.47;64.15
17054;BME280;8643;48.824;11.422;2023-05-20T08:49:05;96877.81;;;23.48;62.31
17054;BME280;8643;48.824;11.422;2023-05-20T08:51:36;96880.47;;;23.28;62.73
17054;BME280;8643;48.824;11.422;2023-05-20T08:54:07;96867.19;;;23.35;60.37
17054;BME280;8643;48.824;11.422;2023-05-20T08:56:38;96870.69;;;24.28;60.34
17054;BME280;8643;48.824;11.422;2023-05-20T08:59:08;96876.25;;;24.99;56.17
17054;BME280;8643;48.824;11.422;2023-05-20T09:01:41;96872.13;;;25.28;56.78
17054;BME280;8643;48.824;11.422;2023-05-20T09:04:10;96870.63;;;25.43;59.84
17054;BME280;8643;48.824;11.422;2023-05-20T09:06:43;96870.41;;;25.54;54.05
17054;BME280;8643;48.824;11.422;2023-05-20T09:09:12;96866.00;;;25.13;56.02
17054;BME280;8643;48.824;11.422;2023-05-20T09:11:41;96865.41;;;25.82;60.30
17054;BME280;8643;48.824;11.422;2023-05-20T09:14:10;96862.88;;;26.86;52.71
17054;BME280;8643;48.824;11.422;2023-05-20T09:16:40;96869.66;;;25.70;56.16
17054;BME280;8643;48.824;11.422;2023-05-20T09:19:09;96871.75;;;26.19;54.34
17054;BME280;8643;48.824;11.422;2023-05-20T09:21:40;96859.09;;;25.94;53.67
17054;BME280;8643;48.824;11.422;2023-05-20T09:24:09;96868.25;;;25.78;51.18
17054;BME280;8643;48.824;11.422;2023-05-20T09:26:38;96866.38;;;25.55;54.17
17054;BME280;8643;48.824;11.422;2023-05-20T09:29:07;96864.69;;;25.77;52.40
17054;BME280;8643;48.824;11.422;2023-05-20T09:31:36;96861.06;;;25.60;53.46
17054;BME280;8643;48.824;11.422;2023-05-20T09:34:06;96859.13;;;25.37;56.41
17054;BME280;8643;48.824;11.422;2023-05-20T09:36:36;96860.81;;;25.11;55.17
17054;BME280;8643;48.824;11.422;2023-05-20T09:39:11;96852.63;;;24.33;53.94
17054;BME280;8643;48.824;11.422;2023-05-20T09:41:48;96859.81;;;23.83;57.12
17054;BME280;8643;48.824;11.422;2023-05-20T09:44:21;96859.41;;;23.81;59.72
17054;BME280;8643;48.824;11.422;2023-05-20T09:46:50;96860.41;;;23.67;57.49
17054;BME280;8643;48.824;11.422;2023-05-20T09:49:22;96860.75;;;23.42;60.73
17054;BME280;8643;48.824;11.422;2023-05-20T09:51:53;96862.59;;;24.34;58.08
17054;BME280;8643;48.824;11.422;2023-05-20T09:54:23;96852.66;;;24.57;58.12
17054;BME280;8643;48.824;11.422;2023-05-20T09:56:53;96851.22;;;24.92;58.50
17054;BME280;8643;48.824;11.422;2023-05-20T09:59:23;96837.31;;;24.85;56.84
17054;BME280;8643;48.824;11.422;2023-05-20T10:01:52;96845.66;;;25.49;53.25
17054;BME280;8643;48.824;11.422;2023-05-20T10:04:25;96841.09;;;26.11;56.00
17054;BME280;8643;48.824;11.422;2023-05-20T10:07:43;96835.03;;;26.13;51.21
17054;BME280;8643;48.824;11.422;2023-05-20T10:10:30;96834.72;;;25.91;51.83
17054;BME280;8643;48.824;11.422;2023-05-20T10:13:08;96830.50;;;26.81;54.33
17054;BME280;8643;48.824;11.422;2023-05-20T10:15:56;96825.56;;;26.85;49.64
17054;BME280;8643;48.824;11.422;2023-05-20T10:18:41;96822.13;;;26.65;53.35
17054;BME280;8643;48.824;11.422;2023-05-20T10:21:20;96819.09;;;27.31;51.01
17054;BME280;8643;48.824;11.422;2023-05-20T10:23:51;96819.31;;;26.65;52.95
17054;BME280;8643;48.824;11.422;2023-05-20T10:26:19;96817.19;;;26.52;49.95
17054;BME280;8643;48.824;11.422;2023-05-20T10:28:48;96813.34;;;26.46;50.36
17054;BME280;8643;48.824;11.422;2023-05-20T10:31:19;96812.13;;;26.93;51.35
17054;BME280;8643;48.824;11.422;2023-05-20T10:33:51;96816.91;;;26.63;49.91
17054;BME280;8643;48.824;11.422;2023-05-20T10:36:26;96812.41;;;26.20;49.77
17054;BME280;8643;48.824;11.422;2023-05-20T10:38:59;96812.97;;;25.62;52.59
17054;BME280;8643;48.824;11.422;2023-05-20T10:41:29;96813.16;;;25.15;50.60
17054;BME280;8643;48.824;11.422;2023-05-20T10:44:02;96801.50;;;24.56;53.92
17054;BME280;8643;48.824;11.422;2023-05-20T10:46:32;96806.16;;;25.03;55.28
17054;BME280;8643;48.824;11.422;2023-05-20T10:49:20;96800.69;;;24.56;50.83
17054;BME280;8643;48.824;11.422;2023-05-20T10:51:55;96796.97;;;24.39;52.58
17054;BME280;8643;48.824;11.422;2023-05-20T10:54:23;96795.75;;;23.65;53.55
17054;BME280;8643;48.824;11.422;2023-05-20T10:56:52;96799.31;;;23.38;55.34
17054;BME280;8643;48.824;11.422;2023-05-20T10:59:21;96795.16;;;23.50;55.38
17054;BME280;8643;48.824;11.422;2023-05-20T11:01:51;96788.22;;;24.13;53.69
17054;BME280;8643;48.824;11.422;2023-05-20T11:04:19;96792.50;;;25.82;53.13
17054;BME280;8643;48.824;11.422;2023-05-20T11:06:51;96785.50;;;26.98;48.14
17054;BME280;8643;48.824;11.422;2023-05-20T11:09:22;96778.06;;;28.23;45.62
17054;BME280;8643;48.824;11.422;2023-05-20T11:11:52;96776.53;;;27.71;43.76
17054;BME280;8643;48.824;11.422;2023-05-20T11:14:21;96771.53;;;26.36;46.10
17054;BME280;8643;48.824;11.422;2023-05-20T11:16:55;96766.69;;;26.36;48.54
17054;BME280;8643;48.824;11.422;2023-05-20T11:19:24;96770.22;;;27.54;51.38
17054;BME280;8643;48.824;11.422;2023-05-20T11:21:54;96767.97;;;29.05;47.97
17054;BME280;8643;48.824;11.422;2023-05-20T11:24:25;96777.59;;;29.39;48.73
17054;BME280;8643;48.824;11.422;2023-05-20T11:26:55;96774.75;;;29.17;44.69
17054;BME280;8643;48.824;11.422;2023-05-20T11:29:26;96777.06;;;28.87;41.02
17054;BME280;8643;48.824;11.422;2023-05-20T11:31:55;96764.88;;;28.68;45.96
17054;BME280;8643;48.824;11.422;2023-05-20T11:34:24;96767.59;;;28.24;42.45
17054;BME280;8643;48.824;11.422;2023-05-20T11:36:56;96766.31;;;28.38;47.05
17054;BME280;8643;48.824;11.422;2023-05-20T11:39:29;96767.19;;;28.60;42.75
17054;BME280;8643;48.824;11.422;2023-05-20T11:41:58;96767.75;;;27.43;43.48
17054;BME280;8643;48.824;11.422;2023-05-20T11:44:26;96763.00;;;26.39;45.99
17054;BME280;8643;48.824;11.422;2023-05-20T11:47:00;96767.72;;;25.43;45.65
17054;BME280;8643;48.824;11.422;2023-05-20T11:49:29;96768.31;;;25.35;46.33
17054;BME280;8643;48.824;11.422;2023-05-20T11:51:58;96759.09;;;25.71;48.38
17054;BME280;8643;48.824;11.422;2023-05-20T11:54:27;96759.09;;;25.87;46.58
17054;BME280;8643;48.824;11.422;2023-05-20T11:56:57;96753.91;;;25.86;47.29
17054;BME280;8643;48.824;11.422;2023-05-20T11:59:26;96748.78;;;25.31;47.62
17054;BME280;8643;48.824;11.422;2023-05-20T12:01:55;96749.03;;;25.00;49.77
17054;BME280;8643;48.824;11.422;2023-05-20T12:04:24;96746.06;;;25.07;48.13
17054;BME280;8643;48.824;11.422;2023-05-20T12:06:53;96749.09;;;24.57;49.43
17054;BME280;8643;48.824;11.422;2023-05-20T12:09:22;96749.50;;;24.55;51.02
17054;BME280;8643;48.824;11.422;2023-05-20T12:11:52;96746.50;;;23.98;51.47
17054;BME280;8643;48.824;11.422;2023-05-20T12:14:22;96758.09;;;24.01;51.86
17054;BME280;8643;48.824;11.422;2023-05-20T12:16:52;96747.00;;;24.17;50.10
17054;BME280;8643;48.824;11.422;2023-05-20T12:19:21;96745.56;;;24.09;52.37
17054;BME280;8643;48.824;11.422;2023-05-20T12:21:49;96746.00;;;24.27;51.90
17054;BME280;8643;48.824;11.422;2023-05-20T12:24:19;96749.69;;;24.68;51.98
17054;BME280;8643;48.824;11.422;2023-05-20T12:26:47;96753.34;;;24.65;52.11
17054;BME280;8643;48.824;11.422;2023-05-20T12:29:17;96756.41;;;24.70;52.03
17054;BME280;8643;48.824;11.422;2023-05-20T12:31:47;96751.91;;;24.57;51.27
17054;BME280;8643;48.824;11.422;2023-05-20T12:34:16;96743.50;;;24.33;50.56
17054;BME280;8643;48.824;11.422;2023-05-20T12:36:44;96748.66;;;24.58;53.38
17054;BME280;8643;48.824;11.422;2023-05-20T12:39:13;96744.84;;;24.88;50.28
17054;BME280;8643;48.824;11.422;2023-05-20T12:41:44;96739.97;;;24.93;50.65
17054;BME280;8643;48.824;11.422;2023-05-20T12:44:12;96739.03;;;24.99;49.11
17054;BME280;8643;48.824;11.422;2023-05-20T12:46:44;96753.47;;;24.58;51.20
17054;BME280;8643;48.824;11.422;2023-05-20T12:49:13;96745.75;;;24.42;53.66
17054;BME280;8643;48.824;11.422;2023-05-20T12:51:41;96734.03;;;24.27;52.74
17054;BME280;8643;48.824;11.422;2023-05-20T12:54:10;96734.38;;;24.09;53.80
17054;BME280;8643;48.824;11.422;2023-05-20T12:56:38;96731.56;;;24.93;52.08
17054;BME280;8643;48.824;11.422;2023-05-20T12:59:07;96736.53;;;25.05;51.55
17054;BME280;8643;48.824;11.422;2023-05-20T13:01:36;96733.03;;;23.93;52.07
17054;BME280;8643;48.824;11.422;2023-05-20T13:04:06;96730.91;;;23.50;55.91
17054;BME280;8643;48.824;11.422;2023-05-20T13:06:35;96738.47;;;24.24;54.36
17054;BME280;8643;48.824;11.422;2023-05-20T13:09:04;96725.41;;;24.61;54.15
17054;BME280;8643;48.824;11.422;2023-05-20T13:11:33;96733.75;;;25.58;52.62